createdAt,value
2019-02-03T00:02:07.745Z,3.69
2019-02-03T00:04:37.184Z,4.30
2019-02-03T00:07:06.480Z,3.89
2019-02-03T00:09:36.780Z,4.07
2019-02-03T00:12:06.065Z,3.92
2019-02-03T00:14:35.325Z,3.59
2019-02-03T00:17:05.893Z,3.75
2019-02-03T00:19:36.258Z,3.84
2019-02-03T00:22:06.912Z,3.77
2019-02-03T00:24:37.264Z,4.31
2019-02-03T00:27:07.523Z,4.04
2019-02-03T00:29:36.741Z,3.80
2019-02-03T00:32:06.115Z,4.06
2019-02-03T00:34:35.505Z,3.94
2019-02-03T00:37:15.383Z,3.78
2019-02-03T00:39:35.886Z,3.82
2019-02-03T00:42:05.273Z,3.97
2019-02-03T00:44:34.555Z,3.96
2019-02-03T00:47:03.820Z,3.75
2019-02-03T00:49:33.101Z,3.63
2019-02-03T00:52:03.429Z,3.13
2019-02-03T00:54:32.861Z,3.38
2019-02-03T00:57:02.111Z,3.64
2019-02-03T00:59:31.372Z,3.95
2019-02-03T01:02:00.614Z,3.62
2019-02-03T01:04:29.865Z,3.81
2019-02-03T01:06:59.117Z,3.35
2019-02-03T01:09:28.434Z,3.56
2019-02-03T01:11:57.847Z,3.84
2019-02-03T01:14:27.163Z,4.11
2019-02-03T01:16:56.414Z,4.39
2019-02-03T01:19:25.686Z,4.14
2019-02-03T01:21:55.285Z,3.87
2019-02-03T01:24:24.601Z,4.20
2019-02-03T01:26:53.852Z,4.07
2019-02-03T01:29:23.085Z,4.28
2019-02-03T01:31:52.362Z,4.06
2019-02-03T01:34:21.599Z,4.05
2019-02-03T01:36:50.901Z,4.16
2019-02-03T01:39:20.139Z,4.34
2019-02-03T01:41:49.392Z,4.31
2019-02-03T01:44:19.598Z,4.26
2019-02-03T01:46:48.843Z,4.31
2019-02-03T01:49:18.285Z,3.80
2019-02-03T01:51:47.512Z,4.10
2019-02-03T01:54:16.767Z,3.52
2019-02-03T01:56:46.010Z,3.91
2019-02-03T01:59:15.263Z,3.94
2019-02-03T02:01:50.722Z,3.90
2019-02-03T02:04:19.993Z,3.69
2019-02-03T02:06:49.233Z,3.60
2019-02-03T02:09:19.454Z,3.81
2019-02-03T02:11:48.806Z,4.11
2019-02-03T02:14:20.054Z,3.94
2019-02-03T02:16:49.294Z,4.10
2019-02-03T02:19:18.631Z,4.07
2019-02-03T02:21:47.937Z,3.88
2019-02-03T02:24:17.205Z,4.05
2019-02-03T02:26:46.453Z,4.19
2019-02-03T02:29:15.994Z,4.31
2019-02-03T02:31:45.246Z,4.39
2019-02-03T02:34:14.548Z,4.24
2019-02-03T02:36:43.777Z,4.39
2019-02-03T02:39:13.047Z,4.23
2019-02-03T02:41:42.441Z,4.08
2019-02-03T02:44:12.596Z,4.00
2019-02-03T02:46:41.873Z,3.90
2019-02-03T02:49:11.220Z,3.99
2019-02-03T02:51:40.445Z,4.13
2019-02-03T02:54:09.675Z,4.07
2019-02-03T02:56:39.235Z,3.90
2019-02-03T02:59:08.548Z,3.82
2019-02-03T03:01:37.809Z,4.09
2019-02-03T03:04:07.067Z,4.17
2019-02-03T03:06:36.341Z,3.72
2019-02-03T03:09:08.861Z,4.04
2019-02-03T03:11:39.154Z,4.19
2019-02-03T03:14:08.426Z,4.01
2019-02-03T03:16:37.690Z,4.10
2019-02-03T03:19:06.961Z,3.86
2019-02-03T03:21:36.230Z,3.96
2019-02-03T03:24:05.562Z,4.08
2019-02-03T03:26:34.902Z,3.97
2019-02-03T03:29:04.141Z,4.05
2019-02-03T03:31:33.539Z,4.25
2019-02-03T03:34:03.160Z,4.48
2019-02-03T03:36:32.397Z,4.29
2019-02-03T03:39:01.640Z,3.97
2019-02-03T03:41:30.931Z,3.95
2019-02-03T03:44:00.185Z,4.10
2019-02-03T03:46:29.399Z,3.77
2019-02-03T03:48:58.678Z,4.09
2019-02-03T03:51:28.202Z,3.66
2019-02-03T03:53:57.451Z,3.75
2019-02-03T03:56:28.654Z,3.65
2019-02-03T03:58:57.935Z,3.54
2019-02-03T04:01:27.182Z,3.86
2019-02-03T04:03:57.901Z,4.09
2019-02-03T04:06:27.227Z,3.90
2019-02-03T04:08:57.433Z,3.90
2019-02-03T04:11:26.839Z,3.80
2019-02-03T04:13:56.137Z,4.12
2019-02-03T04:16:25.394Z,4.32
2019-02-03T04:18:55.586Z,4.09
2019-02-03T04:21:24.838Z,4.13
2019-02-03T04:23:54.170Z,4.10
2019-02-03T04:26:23.428Z,4.06
2019-02-03T04:28:52.739Z,4.20
2019-02-03T04:31:22.284Z,4.34
2019-02-03T04:33:51.576Z,4.29
2019-02-03T04:36:20.812Z,4.27
2019-02-03T04:38:57.603Z,3.67
2019-02-03T04:41:21.101Z,3.83
2019-02-03T04:43:50.433Z,3.80
2019-02-03T04:46:20.609Z,3.40
2019-02-03T04:48:49.885Z,3.39
2019-02-03T04:51:19.126Z,3.29
2019-02-03T04:53:49.330Z,3.03
2019-02-03T04:56:18.600Z,3.13
2019-02-03T04:58:48.125Z,3.29
2019-02-03T05:01:17.408Z,3.27
2019-02-03T05:03:46.662Z,3.55
2019-02-03T05:06:15.930Z,3.39
2019-02-03T05:08:45.171Z,3.36
2019-02-03T05:11:14.422Z,3.34
2019-02-03T05:13:43.686Z,3.32
2019-02-03T05:16:12.946Z,3.33
2019-02-03T05:18:43.196Z,3.52
2019-02-03T05:21:12.459Z,3.44
2019-02-03T05:23:41.707Z,3.20
2019-02-03T05:26:11.252Z,3.30
2019-02-03T05:28:40.498Z,3.37
2019-02-03T05:31:09.748Z,3.80
2019-02-03T05:33:40.006Z,3.84
2019-02-03T05:36:09.271Z,3.50
2019-02-03T05:38:38.512Z,3.68
2019-02-03T05:41:07.763Z,3.78
2019-02-03T05:43:36.996Z,3.77
2019-02-03T05:46:06.232Z,3.64
2019-02-03T05:48:36.410Z,3.45
2019-02-03T05:51:05.744Z,3.20
2019-02-03T05:53:35.294Z,3.71
2019-02-03T05:56:05.683Z,3.53
2019-02-03T05:58:34.922Z,3.41
2019-02-03T06:01:04.303Z,3.21
2019-02-03T06:03:33.564Z,3.55
2019-02-03T06:06:02.812Z,3.91
2019-02-03T06:08:32.070Z,3.42
2019-02-03T06:11:01.317Z,3.36
2019-02-03T06:13:30.559Z,3.47
2019-02-03T06:15:59.838Z,4.06
2019-02-03T06:18:29.998Z,3.97
2019-02-03T06:20:59.961Z,3.85
2019-02-03T06:23:29.234Z,3.57
2019-02-03T06:25:58.526Z,3.91
2019-02-03T06:28:27.774Z,3.56
2019-02-03T06:31:00.221Z,3.74
2019-02-03T06:33:29.579Z,3.77
2019-02-03T06:35:58.839Z,4.06
2019-02-03T06:38:29.152Z,3.97
2019-02-03T06:40:58.443Z,3.48
2019-02-03T06:43:27.753Z,3.40
2019-02-03T06:46:02.530Z,3.72
2019-02-03T06:48:31.783Z,3.38
2019-02-03T06:51:01.099Z,3.47
2019-02-03T06:53:31.354Z,3.70
2019-02-03T06:56:02.579Z,3.34
2019-02-03T06:58:31.849Z,3.53
2019-02-03T07:01:01.092Z,3.65
2019-02-03T07:03:31.323Z,3.61
2019-02-03T07:06:00.621Z,3.91
2019-02-03T07:08:29.864Z,3.57
2019-02-03T07:10:59.121Z,3.74
2019-02-03T07:13:28.641Z,3.71
2019-02-03T07:15:57.888Z,3.58
2019-02-03T07:18:27.157Z,3.79
2019-02-03T07:20:56.412Z,3.95
2019-02-03T07:23:25.692Z,4.14
2019-02-03T07:25:55.046Z,3.84
2019-02-03T07:28:24.279Z,3.41
2019-02-03T07:30:54.555Z,3.78
2019-02-03T07:33:23.790Z,3.94
2019-02-03T07:35:53.172Z,3.64
2019-02-03T07:38:22.414Z,3.87
2019-02-03T07:40:51.962Z,3.61
2019-02-03T07:43:22.639Z,3.77
2019-02-03T07:45:51.893Z,3.92
2019-02-03T07:48:22.114Z,3.73
2019-02-03T07:50:51.548Z,4.10
2019-02-03T07:53:20.839Z,4.08
2019-02-03T07:55:50.134Z,4.05
2019-02-03T07:58:19.442Z,3.95
2019-02-03T08:00:48.699Z,4.09
2019-02-03T08:03:17.943Z,4.49
2019-02-03T08:05:47.324Z,4.39
2019-02-03T08:08:16.577Z,4.34
2019-02-03T08:10:45.811Z,4.76
2019-02-03T08:13:15.070Z,4.75
2019-02-03T08:15:44.307Z,4.37
2019-02-03T08:18:13.583Z,4.79
2019-02-03T08:20:42.882Z,4.20
2019-02-03T08:23:12.491Z,4.67
2019-02-03T08:25:42.000Z,4.89
2019-02-03T08:28:11.276Z,5.02
2019-02-03T08:30:40.533Z,5.58
2019-02-03T08:33:09.828Z,6.07
2019-02-03T08:35:39.181Z,6.75
2019-02-03T08:38:08.636Z,6.16
2019-02-03T08:40:37.972Z,6.73
2019-02-03T08:43:07.301Z,6.39
2019-02-03T08:45:37.315Z,7.01
2019-02-03T08:48:06.694Z,6.65
2019-02-03T08:50:37.586Z,6.08
2019-02-03T08:53:07.799Z,6.01
2019-02-03T08:55:37.073Z,5.88
2019-02-03T08:58:06.315Z,5.96
2019-02-03T09:00:37.452Z,5.40
2019-02-03T09:03:08.765Z,6.06
2019-02-03T09:05:38.088Z,5.43
2019-02-03T09:08:09.418Z,5.40
2019-02-03T09:10:48.041Z,6.09
2019-02-03T09:13:09.604Z,6.31
2019-02-03T09:15:39.784Z,6.25
2019-02-03T09:18:09.191Z,6.20
2019-02-03T09:20:38.523Z,6.47
2019-02-03T09:23:07.843Z,6.28
2019-02-03T09:25:38.220Z,5.64
2019-02-03T09:28:08.374Z,6.84
2019-02-03T09:30:39.048Z,6.94
2019-02-03T09:33:08.534Z,7.30
2019-02-03T09:35:37.837Z,8.21
2019-02-03T09:38:12.472Z,7.39
2019-02-03T09:40:40.733Z,8.14
2019-02-03T09:43:09.983Z,7.80
2019-02-03T09:45:39.235Z,7.09
2019-02-03T09:48:09.431Z,7.06
2019-02-03T09:50:38.717Z,7.29
2019-02-03T09:53:08.032Z,8.23
2019-02-03T09:55:37.271Z,8.09
2019-02-03T09:58:06.885Z,8.43
2019-02-03T10:00:39.330Z,8.11
2019-02-03T10:03:11.031Z,7.86
2019-02-03T10:05:40.269Z,7.69
2019-02-03T10:08:09.615Z,6.34
2019-02-03T10:10:41.234Z,6.64
2019-02-03T10:13:10.648Z,6.76
2019-02-03T10:15:39.894Z,6.96
2019-02-03T10:18:09.923Z,7.04
2019-02-03T10:20:39.298Z,6.50
2019-02-03T10:23:08.551Z,7.61
2019-02-03T10:25:37.795Z,7.10
2019-02-03T10:28:07.191Z,7.41
2019-02-03T10:30:37.986Z,6.87
2019-02-03T10:33:07.367Z,6.79
2019-02-03T10:35:36.706Z,7.36
2019-02-03T10:38:06.338Z,7.12
2019-02-03T10:40:39.560Z,6.76
2019-02-03T10:43:09.240Z,6.64
2019-02-03T10:45:38.543Z,6.43
2019-02-03T10:48:07.890Z,7.26
2019-02-03T10:50:39.151Z,6.86
2019-02-03T10:53:10.794Z,6.52
2019-02-03T10:55:40.096Z,6.40
2019-02-03T10:58:09.533Z,6.53
2019-02-03T11:00:43.141Z,6.43
2019-02-03T11:03:12.452Z,6.59
2019-02-03T11:05:45.242Z,6.68
2019-02-03T11:08:14.551Z,6.20
2019-02-03T11:10:45.223Z,6.41
2019-02-03T11:13:14.932Z,6.68
2019-02-03T11:15:44.316Z,6.91
2019-02-03T11:18:14.003Z,6.73
2019-02-03T11:20:43.239Z,7.49
2019-02-03T11:23:12.582Z,6.58
2019-02-03T11:25:41.845Z,6.62
2019-02-03T11:28:11.146Z,6.93
2019-02-03T11:30:40.425Z,6.81
2019-02-03T11:33:10.041Z,6.70
2019-02-03T11:35:39.406Z,7.23
2019-02-03T11:38:08.829Z,7.70
2019-02-03T11:40:41.353Z,8.22
2019-02-03T11:43:09.733Z,7.37
2019-02-03T11:45:41.655Z,7.21
2019-02-03T11:48:19.779Z,7.16
2019-02-03T11:50:50.474Z,7.64
2019-02-03T11:53:22.661Z,7.52
2019-02-03T11:55:53.899Z,7.60
2019-02-03T11:58:22.959Z,7.30
2019-02-03T12:00:52.267Z,7.18
2019-02-03T12:03:21.564Z,7.48
2019-02-03T12:05:50.759Z,7.57
2019-02-03T12:08:21.351Z,7.26
2019-02-03T12:10:50.657Z,7.81
2019-02-03T12:13:20.188Z,7.63
2019-02-03T12:15:49.506Z,7.49
2019-02-03T12:18:18.820Z,7.40
2019-02-03T12:20:48.071Z,7.18
2019-02-03T12:23:18.287Z,7.03
2019-02-03T12:25:48.533Z,6.61
2019-02-03T12:28:17.785Z,7.23
2019-02-03T12:30:47.032Z,6.91
2019-02-03T12:33:16.248Z,7.44
2019-02-03T12:35:45.488Z,7.57
2019-02-03T12:38:14.727Z,7.67
2019-02-03T12:40:44.052Z,7.80
2019-02-03T12:43:14.191Z,7.27
2019-02-03T12:45:43.415Z,7.39
2019-02-03T12:48:13.659Z,7.51
2019-02-03T12:50:42.963Z,7.22
2019-02-03T12:53:12.504Z,7.82
2019-02-03T12:55:44.660Z,7.03
2019-02-03T12:58:12.763Z,7.37
2019-02-03T13:00:42.011Z,7.94
2019-02-03T13:03:11.410Z,7.82
2019-02-03T13:05:40.661Z,8.58
2019-02-03T13:08:16.829Z,8.95
2019-02-03T13:10:46.098Z,8.50
2019-02-03T13:13:15.356Z,8.67
2019-02-03T13:15:50.630Z,8.28
2019-02-03T13:18:20.272Z,8.24
2019-02-03T13:20:49.478Z,7.55
2019-02-03T13:23:19.695Z,7.77
2019-02-03T13:25:50.889Z,8.26
2019-02-03T13:28:20.720Z,8.15
2019-02-03T13:30:50.654Z,7.92
2019-02-03T13:33:21.793Z,7.82
2019-02-03T13:35:50.814Z,6.87
2019-02-03T13:38:20.048Z,7.53
2019-02-03T13:40:49.295Z,8.12
2019-02-03T13:43:18.595Z,7.79
2019-02-03T13:45:47.849Z,7.69
2019-02-03T13:48:17.147Z,7.90
2019-02-03T13:50:46.395Z,7.59
2019-02-03T13:53:18.792Z,7.98
2019-02-03T13:55:48.054Z,8.09
2019-02-03T13:58:17.297Z,7.95
2019-02-03T14:00:47.129Z,7.59
2019-02-03T14:03:16.316Z,7.61
2019-02-03T14:05:45.713Z,7.65
2019-02-03T14:08:14.956Z,7.36
2019-02-03T14:10:44.539Z,7.44
2019-02-03T14:13:15.763Z,7.46
2019-02-03T14:15:47.676Z,7.84
2019-02-03T14:18:16.928Z,7.96
2019-02-03T14:20:47.157Z,7.65
2019-02-03T14:23:16.559Z,7.35
2019-02-03T14:25:45.789Z,7.64
2019-02-03T14:28:15.947Z,7.60
2019-02-03T14:30:45.196Z,8.14
2019-02-03T14:33:15.364Z,9.58
2019-02-03T14:35:45.896Z,9.27
2019-02-03T14:38:15.126Z,9.55
2019-02-03T14:40:46.436Z,10.16
2019-02-03T14:43:15.666Z,10.83
2019-02-03T14:45:44.898Z,10.66
2019-02-03T14:48:14.148Z,12.09
2019-02-03T14:50:44.238Z,10.91
2019-02-03T14:53:18.405Z,9.94
2019-02-03T14:55:51.624Z,8.70
2019-02-03T14:58:19.560Z,7.80
2019-02-03T15:00:49.359Z,9.46
2019-02-03T15:03:19.952Z,7.89
2019-02-03T15:05:49.238Z,7.56
2019-02-03T15:08:18.538Z,7.97
2019-02-03T15:10:48.715Z,7.64
2019-02-03T15:13:17.957Z,7.84
2019-02-03T15:15:47.195Z,7.54
2019-02-03T15:18:17.357Z,7.35
2019-02-03T15:20:46.583Z,7.21
2019-02-03T15:23:16.774Z,7.17
2019-02-03T15:25:46.058Z,7.25
2019-02-03T15:28:15.597Z,7.56
2019-02-03T15:30:47.125Z,7.44
2019-02-03T15:33:16.365Z,7.21
2019-02-03T15:35:45.659Z,7.09
2019-02-03T15:38:14.914Z,7.32
2019-02-03T15:40:44.426Z,7.09
2019-02-03T15:43:24.643Z,6.98
2019-02-03T15:45:44.585Z,6.97
2019-02-03T15:48:13.907Z,7.02
2019-02-03T15:50:45.926Z,6.89
2019-02-03T15:53:16.443Z,6.69
2019-02-03T15:55:45.665Z,7.17
2019-02-03T15:58:16.869Z,7.21
2019-02-03T16:00:49.150Z,7.12
2019-02-03T16:03:18.407Z,7.39
2019-02-03T16:05:47.625Z,6.92
2019-02-03T16:08:16.909Z,7.03
2019-02-03T16:10:46.223Z,7.28
2019-02-03T16:13:15.454Z,8.15
2019-02-03T16:15:45.701Z,7.47
2019-02-03T16:18:14.925Z,7.15
2019-02-03T16:20:44.455Z,7.47
2019-02-03T16:23:13.686Z,7.69
2019-02-03T16:25:43.967Z,7.73
2019-02-03T16:28:13.180Z,7.04
2019-02-03T16:30:43.728Z,7.26
2019-02-03T16:33:14.212Z,7.43
2019-02-03T16:35:43.471Z,7.04
2019-02-03T16:38:22.442Z,6.62
2019-02-03T16:40:44.643Z,7.36
2019-02-03T16:43:13.874Z,7.33
2019-02-03T16:45:43.137Z,6.90
2019-02-03T16:48:13.500Z,7.21
2019-02-03T16:50:43.725Z,6.90
2019-02-03T16:53:13.732Z,6.84
2019-02-03T16:55:43.938Z,6.76
2019-02-03T16:58:13.191Z,7.06
2019-02-03T17:00:47.270Z,6.54
2019-02-03T17:03:16.572Z,7.00
2019-02-03T17:05:45.848Z,6.85
2019-02-03T17:08:16.069Z,6.98
2019-02-03T17:10:46.420Z,6.58
2019-02-03T17:13:21.494Z,6.88
2019-02-03T17:15:53.772Z,6.90
2019-02-03T17:18:23.016Z,6.82
2019-02-03T17:21:01.544Z,6.71
2019-02-03T17:23:23.244Z,6.64
2019-02-03T17:25:55.674Z,6.79
2019-02-03T17:28:24.901Z,6.75
2019-02-03T17:30:54.211Z,6.74
2019-02-03T17:33:24.485Z,6.74
2019-02-03T17:35:54.972Z,6.56
2019-02-03T17:38:25.162Z,6.39
2019-02-03T17:40:54.471Z,6.60
2019-02-03T17:43:23.777Z,6.54
2019-02-03T17:45:53.088Z,6.34
2019-02-03T17:48:22.320Z,6.37
2019-02-03T17:50:52.111Z,6.35
2019-02-03T17:53:21.449Z,6.33
2019-02-03T17:55:50.750Z,6.26
2019-02-03T17:58:20.991Z,5.71
2019-02-03T18:00:55.270Z,5.72
2019-02-03T18:03:24.562Z,5.69
2019-02-03T18:05:53.832Z,5.57
2019-02-03T18:08:23.103Z,5.35
2019-02-03T18:10:53.326Z,5.03
2019-02-03T18:13:22.553Z,5.23
2019-02-03T18:15:52.764Z,5.29
2019-02-03T18:18:22.033Z,5.35
2019-02-03T18:20:51.677Z,4.85
2019-02-03T18:23:21.974Z,4.80
2019-02-03T18:25:51.374Z,4.47
2019-02-03T18:28:20.607Z,4.40
2019-02-03T18:30:49.938Z,4.45
2019-02-03T18:33:20.164Z,4.80
2019-02-03T18:35:49.429Z,4.65
2019-02-03T18:38:18.664Z,4.81
2019-02-03T18:40:47.939Z,4.91
2019-02-03T18:43:17.197Z,4.79
2019-02-03T18:45:46.504Z,4.60
2019-02-03T18:48:18.108Z,4.39
2019-02-03T18:50:49.066Z,4.31
2019-02-03T18:53:18.412Z,4.38
2019-02-03T18:55:48.682Z,4.22
2019-02-03T18:58:17.980Z,4.48
2019-02-03T19:00:47.267Z,4.69
2019-02-03T19:03:16.574Z,4.48
2019-02-03T19:05:45.844Z,4.45
2019-02-03T19:08:16.048Z,4.48
2019-02-03T19:10:45.307Z,4.52
2019-02-03T19:13:14.569Z,4.35
2019-02-03T19:15:44.099Z,4.48
2019-02-03T19:18:13.357Z,3.89
2019-02-03T19:20:44.134Z,3.90
2019-02-03T19:23:14.604Z,4.29
2019-02-03T19:25:43.918Z,4.13
2019-02-03T19:28:17.818Z,3.91
2019-02-03T19:30:48.974Z,4.06
2019-02-03T19:33:18.219Z,4.10
2019-02-03T19:35:49.456Z,3.83
2019-02-03T19:38:18.861Z,3.62
2019-02-03T19:40:48.122Z,3.72
2019-02-03T19:43:18.417Z,3.59
2019-02-03T19:45:47.708Z,3.59
2019-02-03T19:48:16.964Z,3.67
2019-02-03T19:50:49.355Z,3.82
2019-02-03T19:53:18.622Z,3.76
2019-02-03T19:55:47.844Z,3.35
2019-02-03T19:58:17.083Z,3.51
2019-02-03T20:00:46.598Z,3.64
2019-02-03T20:03:15.999Z,3.38
2019-02-03T20:05:45.220Z,3.32
2019-02-03T20:08:14.515Z,3.27
2019-02-03T20:10:43.841Z,3.58
2019-02-03T20:13:13.143Z,3.52
2019-02-03T20:15:42.482Z,3.34
2019-02-03T20:18:11.726Z,3.43
2019-02-03T20:20:41.991Z,3.32
2019-02-03T20:23:11.667Z,3.36
2019-02-03T20:25:46.103Z,3.37
2019-02-03T20:28:15.417Z,3.19
2019-02-03T20:30:44.691Z,3.02
2019-02-03T20:33:14.012Z,3.33
2019-02-03T20:35:44.735Z,3.20
2019-02-03T20:38:13.994Z,3.09
2019-02-03T20:40:44.490Z,3.09
2019-02-03T20:43:14.074Z,2.98
2019-02-03T20:45:49.410Z,3.19
2019-02-03T20:48:14.280Z,3.21
2019-02-03T20:50:43.768Z,3.03
2019-02-03T20:53:14.014Z,3.13
2019-02-03T20:55:43.341Z,3.06
2019-02-03T20:58:12.594Z,3.06
2019-02-03T21:00:41.956Z,2.80
2019-02-03T21:03:11.283Z,2.66
2019-02-03T21:05:40.529Z,2.68
2019-02-03T21:08:10.877Z,2.60
2019-02-03T21:10:40.137Z,2.97
2019-02-03T21:13:11.858Z,2.92
2019-02-03T21:15:41.311Z,2.84
2019-02-03T21:18:11.711Z,2.89
2019-02-03T21:20:41.057Z,3.00
2019-02-03T21:23:10.296Z,2.94
2019-02-03T21:25:39.531Z,2.80
2019-02-03T21:28:08.943Z,2.82
2019-02-03T21:30:38.961Z,2.80
2019-02-03T21:33:10.467Z,2.92
2019-02-03T21:35:39.876Z,2.81
2019-02-03T21:38:09.362Z,2.93
2019-02-03T21:40:38.686Z,2.85
2019-02-03T21:43:07.952Z,2.93
2019-02-03T21:45:44.767Z,2.88
2019-02-03T21:48:10.585Z,2.85
2019-02-03T21:50:39.823Z,2.72
2019-02-03T21:53:10.046Z,2.79
2019-02-03T21:55:39.268Z,2.79
2019-02-03T21:58:08.744Z,2.65
2019-02-03T22:00:38.094Z,2.59
2019-02-03T22:03:07.372Z,2.83
2019-02-03T22:05:36.645Z,2.56
2019-02-03T22:08:06.061Z,2.56
2019-02-03T22:10:37.531Z,2.63
2019-02-03T22:13:08.817Z,2.64
2019-02-03T22:15:38.062Z,2.54
2019-02-03T22:18:07.295Z,2.52
2019-02-03T22:20:37.577Z,2.50
2019-02-03T22:23:06.827Z,2.50
2019-02-03T22:25:36.353Z,2.36
2019-02-03T22:28:05.706Z,2.43
2019-02-03T22:30:37.182Z,2.54
2019-02-03T22:33:06.982Z,2.52
2019-02-03T22:35:37.233Z,2.55
2019-02-03T22:38:06.855Z,2.24
2019-02-03T22:40:43.026Z,2.35
2019-02-03T22:43:12.260Z,2.21
2019-02-03T22:45:41.530Z,2.45
2019-02-03T22:48:10.785Z,2.32
2019-02-03T22:50:40.304Z,2.35
2019-02-03T22:53:09.672Z,2.40
2019-02-03T22:55:38.911Z,2.31
2019-02-03T22:58:08.167Z,2.32
2019-02-03T23:00:53.587Z,2.41
2019-02-03T23:03:29.188Z,2.23
2019-02-03T23:05:58.484Z,2.34
2019-02-03T23:08:27.771Z,2.41
2019-02-03T23:10:57.024Z,2.16
2019-02-03T23:13:26.262Z,2.24
2019-02-03T23:15:55.510Z,2.16
2019-02-03T23:18:24.740Z,2.32
2019-02-03T23:20:54.911Z,1.97
2019-02-03T23:23:24.192Z,1.91
2019-02-03T23:25:53.491Z,2.10
2019-02-03T23:28:23.978Z,1.99
2019-02-03T23:30:53.227Z,1.93
2019-02-03T23:33:22.466Z,2.20
2019-02-03T23:35:51.807Z,2.22
2019-02-03T23:38:21.026Z,2.16
2019-02-03T23:40:52.935Z,2.01
2019-02-03T23:43:22.167Z,1.97
2019-02-03T23:45:52.401Z,2.03
2019-02-03T23:48:21.626Z,1.97
2019-02-03T23:50:51.833Z,2.19
2019-02-03T23:53:21.069Z,2.11
2019-02-03T23:55:50.489Z,2.34
2019-02-03T23:58:20.808Z,2.01
